METAR Data
IDs: Format: Raw Decoded Include TAF

Data at: 1943 UTC 22 May 2019

KEGE 221856Z VRB06G15KT 10SM FEW070 SCT080 11/M03 A2975 RMK AO2 SLP060 T01111028